Gerard D — WTG3761 — position and weather

sailwx.info

Track history (hours):
 
Tides and Currents Weather Stations Pressure Air Temp Water Temp Dewpoint Dewpoint Depression Visibility Wind Speed Wind Dir Waves Ship Positions

Gerard D

Owner: WEEKS MARINE, INC., CRANFORD, NJ. More information available from US FCC via Universal Licensing System and Coast Guard Vessel Documentation Center.

Last reported at 2018-Feb-20 11:00 UTC. Time now 2018-Feb-20 11:29 UTC.
Position N 29°36' W 090°40'.

Length 20 m; draft 3 m.

Type: Tug. MMSI: 366939130.

Date/timePositionNaut miles runAvg speedWind from/ knotsBaromVisibWave heightAir tempDewpointWater temp
2018-Feb-20 11:00N 29°36' W 090°40'0 0.0
2018-Feb-20 10:30N 29°36' W 090°40'0 0.0
2018-Feb-20 10:01N 29°36' W 090°40'0 0.0
2018-Feb-20 09:30N 29°36' W 090°40'0 0.0
2018-Feb-20 09:01N 29°36' W 090°40'0 0.0
2018-Feb-20 08:31N 29°36' W 090°40'0 0.0
2018-Feb-20 08:01N 29°36' W 090°40'0 0.0
2018-Feb-20 07:30N 29°36' W 090°40'0 0.0
2018-Feb-20 07:01N 29°36' W 090°40'0 0.0
2018-Feb-20 06:30N 29°36' W 090°40'0 0.0
2018-Feb-20 06:01N 29°36' W 090°40'0 0.0
2018-Feb-20 05:31N 29°36' W 090°40'0 0.0
2018-Feb-20 05:00N 29°36' W 090°40'0 0.0
2018-Feb-20 04:30N 29°36' W 090°40'0 0.0
2018-Feb-20 04:00N 29°36' W 090°40'0 0.0
2018-Feb-20 03:30N 29°36' W 090°40'0 0.0
2018-Feb-20 03:01N 29°36' W 090°40'0 0.0
2018-Feb-20 02:28N 29°36' W 090°40'0 0.0
2018-Feb-20 01:59N 29°36' W 090°40'0 0.0
2018-Feb-20 01:31N 29°36' W 090°40'0 0.0
2018-Feb-20 01:00N 29°36' W 090°40'0 0.0
2018-Feb-20 00:30N 29°36' W 090°40'0 0.0
2018-Feb-20 00:01N 29°36' W 090°40'0 0.0
2018-Feb-19 23:30N 29°36' W 090°40'0 0.0
2018-Feb-19 23:01N 29°36' W 090°40'0 0.2
2018-Feb-19 22:30N 29°36' W 090°40'0 0.0
2018-Feb-19 22:01N 29°36' W 090°40'0 0.1
2018-Feb-19 21:30N 29°36' W 090°40'0 0.1
2018-Feb-19 21:00N 29°36' W 090°40'0 0.2
2018-Feb-19 20:26N 29°36' W 090°40'0 0.0
2018-Feb-19 19:25N 29°36' W 090°40'0 0.0
2018-Feb-19 18:59N 29°36' W 090°40'0 0.0
2018-Feb-19 18:28N 29°36' W 090°40'0 0.0
2018-Feb-19 18:00N 29°36' W 090°40'0 0.8
2018-Feb-19 17:30N 29°36' W 090°40'2 4.4
2018-Feb-19 17:00N 29°36' W 090°43'2 5.0
2018-Feb-19 16:31N 29°34' W 090°44'1 2.3
2018-Feb-19 16:01N 29°34' W 090°43'0 0.4
2018-Feb-19 15:30N 29°34' W 090°43'3 5.2
2018-Feb-19 15:01N 29°37' W 090°42'4 7.2
2018-Feb-19 14:30N 29°35' W 090°38'2 4.0
2018-Feb-19 14:01N 29°35' W 090°36'0 0.0
2018-Feb-19 13:30N 29°35' W 090°36'0 0.0
2018-Feb-19 13:00N 29°35' W 090°36'0 0.0
2018-Feb-19 12:31N 29°35' W 090°36'0 0.0
2018-Feb-19 12:00N 29°35' W 090°36'0 0.0
2018-Feb-19 11:30N 29°35' W 090°36'0 0.0
2018-Feb-19 11:01N 29°35' W 090°36'0 0.0
2018-Feb-19 10:31N 29°35' W 090°36'0 0.0
2018-Feb-19 10:01N 29°35' W 090°36'0 0.0
2018-Feb-19 09:31N 29°35' W 090°36'0 0.0
2018-Feb-19 09:00N 29°35' W 090°36'0 0.0
2018-Feb-19 08:30N 29°35' W 090°36'0 0.0
2018-Feb-19 08:00N 29°35' W 090°36'0 0.0
2018-Feb-19 07:31N 29°35' W 090°36'0 0.0
2018-Feb-19 07:01N 29°35' W 090°36'0 0.0
2018-Feb-19 06:31N 29°35' W 090°36'0 0.0
2018-Feb-19 06:01N 29°35' W 090°36'0 0.0
2018-Feb-19 05:31N 29°35' W 090°36'0 0.0
2018-Feb-19 05:00N 29°35' W 090°36'0 0.0
2018-Feb-19 04:31N 29°35' W 090°36'0 0.0
2018-Feb-19 04:01N 29°35' W 090°36'0 0.0
2018-Feb-19 03:30N 29°35' W 090°36'0 0.0
2018-Feb-19 03:00N 29°35' W 090°36'0 0.0
2018-Feb-19 02:30N 29°35' W 090°36'0 0.0
2018-Feb-19 02:01N 29°35' W 090°36'0 0.0
2018-Feb-19 01:31N 29°35' W 090°36'0 0.0
2018-Feb-19 01:00N 29°35' W 090°36'0 0.0
2018-Feb-19 00:31N 29°35' W 090°36'0 0.0
2018-Feb-19 00:01N 29°35' W 090°36'0 0.0
2018-Feb-18 23:30N 29°35' W 090°36'0 0.0
2018-Feb-18 23:01N 29°35' W 090°36'0 0.0
2018-Feb-18 22:31N 29°35' W 090°36'0 0.0
2018-Feb-18 22:01N 29°35' W 090°36'0 0.0
2018-Feb-18 21:30N 29°35' W 090°36'0 0.0
2018-Feb-18 21:00N 29°35' W 090°36'0 0.0
2018-Feb-18 20:31N 29°35' W 090°36'0 0.0
2018-Feb-18 20:01N 29°35' W 090°36'0 0.0
2018-Feb-18 19:30N 29°35' W 090°36'0 0.0
2018-Feb-18 19:01N 29°35' W 090°36'0 0.0
2018-Feb-18 18:30N 29°35' W 090°36'0 0.0
2018-Feb-18 18:01N 29°35' W 090°36'0 0.0
2018-Feb-18 17:31N 29°35' W 090°36'0 0.0
2018-Feb-18 17:01N 29°35' W 090°36'2 4.4
2018-Feb-18 16:30N 29°35' W 090°39'3 6.7
2018-Feb-18 16:01N 29°37' W 090°42'1 2.6
2018-Feb-18 15:30N 29°36' W 090°43'2 3.0
2018-Feb-18 15:01N 29°37' W 090°41'1 2.6
2018-Feb-18 14:31N 29°36' W 090°40'0 0.2
2018-Feb-18 14:00N 29°36' W 090°40'0 0.1
2018-Feb-18 13:30N 29°36' W 090°40'0 0.8
2018-Feb-18 13:00N 29°36' W 090°40'0 0.2
2018-Feb-18 12:30N 29°36' W 090°40'0 0.0
2018-Feb-18 11:58N 29°36' W 090°40'0 0.0
2018-Feb-18 11:28N 29°36' W 090°40'0 0.0
2018-Feb-18 11:00N 29°36' W 090°40'0 0.0
2018-Feb-18 10:09N 29°36' W 090°40'0 0.0
2018-Feb-18 10:00N 29°36' W 090°40'0 0.0
2018-Feb-18 09:30N 29°36' W 090°40'0 0.0
2018-Feb-18 09:00N 29°36' W 090°40'0 0.0
2018-Feb-18 08:30N 29°36' W 090°40'0 0.0
2018-Feb-18 08:00N 29°36' W 090°40'0 0.0
2018-Feb-18 07:30N 29°36' W 090°40'0 0.0
2018-Feb-18 07:00N 29°36' W 090°40'0 0.0
2018-Feb-18 06:30N 29°36' W 090°40'0 0.0
2018-Feb-18 05:59N 29°36' W 090°40'0 0.0
2018-Feb-18 05:30N 29°36' W 090°40'0 0.0
2018-Feb-18 05:00N 29°36' W 090°40'0 0.0
2018-Feb-18 04:30N 29°36' W 090°40'0 0.9
2018-Feb-18 04:00N 29°36' W 090°40'0 0.0
2018-Feb-18 03:31N 29°36' W 090°40'0 0.2
2018-Feb-18 03:00N 29°36' W 090°40'1 1.1
2018-Feb-18 02:30N 29°36' W 090°39'2 4.6
2018-Feb-18 02:01N 29°35' W 090°37'2 4.1
2018-Feb-18 01:30N 29°34' W 090°35'2 4.5
2018-Feb-18 01:00N 29°34' W 090°32'2 4.7
2018-Feb-18 00:30N 29°34' W 090°30'  
2018-Feb-14 20:15N 29°34' W 090°31'2 7.9
2018-Feb-14 20:00N 29°34' W 090°33'3 5.6
2018-Feb-14 19:30N 29°35' W 090°36'0 0.0
2018-Feb-14 19:00N 29°35' W 090°36'3 6.7
2018-Feb-14 18:30N 29°36' W 090°40'0 0.2
2018-Feb-14 18:01N 29°36' W 090°40'0 0.0
2018-Feb-14 17:30N 29°36' W 090°40'0 0.0
2018-Feb-14 17:01N 29°36' W 090°40'3 5.2
2018-Feb-14 16:30N 29°35' W 090°37'1 1.6
2018-Feb-14 16:00N 29°34' W 090°36'0 0.0
2018-Feb-14 15:31N 29°34' W 090°36'0 0.1
2018-Feb-14 15:00N 29°34' W 090°36'0 0.0
2018-Feb-14 14:30N 29°34' W 090°36'0 0.0
2018-Feb-14 14:00N 29°34' W 090°36'0 0.3
2018-Feb-14 13:29N 29°35' W 090°37'0 0.0
2018-Feb-14 13:00N 29°35' W 090°37'0 0.0
2018-Feb-14 12:31N 29°35' W 090°37'0 0.0
2018-Feb-14 12:01N 29°35' W 090°37'0 0.0
2018-Feb-14 11:30N 29°35' W 090°37'0 0.0
2018-Feb-14 11:01N 29°35' W 090°37'0 0.0
2018-Feb-14 10:29N 29°35' W 090°37'0 0.0
2018-Feb-14 10:00N 29°35' W 090°37'0 0.0
2018-Feb-14 09:30N 29°35' W 090°37'0 0.0
2018-Feb-14 09:00N 29°35' W 090°37'0 0.0
2018-Feb-14 08:30N 29°35' W 090°37'0 0.0
2018-Feb-14 08:00N 29°35' W 090°37'0 0.0
2018-Feb-14 07:31N 29°35' W 090°37'0 0.0
2018-Feb-14 07:00N 29°35' W 090°37'0 0.0
2018-Feb-14 06:30N 29°35' W 090°37'0 0.0
2018-Feb-14 06:01N 29°35' W 090°37'0 0.0
2018-Feb-14 05:30N 29°35' W 090°37'0 0.0
2018-Feb-14 05:01N 29°35' W 090°37'0 0.0
2018-Feb-14 04:31N 29°35' W 090°37'0 0.0
2018-Feb-14 04:00N 29°35' W 090°37'0 0.0
2018-Feb-14 03:30N 29°35' W 090°37'0 0.0
2018-Feb-14 03:01N 29°35' W 090°37'0 0.0
2018-Feb-14 02:31N 29°35' W 090°37'0 0.0
2018-Feb-14 02:00N 29°35' W 090°37'0 0.0
2018-Feb-14 01:31N 29°35' W 090°37'0 0.0
2018-Feb-14 01:01N 29°35' W 090°37'0 0.0
2018-Feb-14 00:31N 29°35' W 090°37'0 0.0
2018-Feb-14 00:00N 29°35' W 090°37'0 0.0
2018-Feb-13 23:30N 29°35' W 090°37'0 0.0
2018-Feb-13 22:59N 29°35' W 090°37'0 0.0
2018-Feb-13 22:31N 29°35' W 090°37'0 0.0
2018-Feb-13 22:01N 29°35' W 090°37'0 0.0
2018-Feb-13 21:30N 29°35' W 090°37'0 0.0
2018-Feb-13 21:01N 29°35' W 090°37'0 0.0
2018-Feb-13 20:28N 29°35' W 090°37'0 0.0
2018-Feb-13 20:00N 29°35' W 090°37'0 0.0
2018-Feb-13 19:31N 29°35' W 090°37'0 0.0
2018-Feb-13 19:01N 29°35' W 090°37'0 0.0
2018-Feb-13 18:31N 29°35' W 090°37'0 0.0
2018-Feb-13 18:01N 29°35' W 090°37'0 0.0
2018-Feb-13 17:30N 29°35' W 090°37'0 0.0
2018-Feb-13 17:01N 29°35' W 090°37'0 0.0
2018-Feb-13 16:30N 29°35' W 090°37'0 0.0
2018-Feb-13 16:01N 29°35' W 090°37'0 0.0
2018-Feb-13 15:31N 29°35' W 090°37'0 0.0
2018-Feb-13 15:00N 29°35' W 090°37'0 0.0
2018-Feb-13 14:30N 29°35' W 090°37'0 0.0
2018-Feb-13 14:00N 29°35' W 090°37'0 0.0
2018-Feb-13 13:30N 29°35' W 090°37'0 0.0
2018-Feb-13 13:01N 29°35' W 090°37'0 0.0
2018-Feb-13 12:30N 29°35' W 090°37'0 0.0
2018-Feb-13 12:01N 29°35' W 090°37'0 0.0
2018-Feb-13 11:30N 29°35' W 090°37'0 0.0
2018-Feb-13 11:01N 29°35' W 090°37'0 0.0
2018-Feb-13 10:31N 29°35' W 090°37'0 0.0
2018-Feb-13 10:00N 29°35' W 090°37'0 0.0
2018-Feb-13 09:31N 29°35' W 090°37'0 0.0
2018-Feb-13 08:59N 29°35' W 090°37'0 0.0
2018-Feb-13 08:30N 29°35' W 090°37'0 0.0
2018-Feb-13 08:00N 29°35' W 090°37'0 0.0
2018-Feb-13 07:31N 29°35' W 090°37'0 0.0
2018-Feb-13 07:01N 29°35' W 090°37'0 0.0
2018-Feb-13 06:31N 29°35' W 090°37'0 0.0
2018-Feb-13 06:00N 29°35' W 090°37'0 0.0
2018-Feb-13 05:31N 29°35' W 090°37'0 0.0
2018-Feb-13 05:01N 29°35' W 090°37'0 0.0
2018-Feb-13 04:31N 29°35' W 090°37'0 0.0
2018-Feb-13 04:00N 29°35' W 090°37'0 0.0
2018-Feb-13 03:30N 29°35' W 090°37'0 0.0
2018-Feb-13 03:00N 29°35' W 090°37'0 0.0
2018-Feb-13 02:30N 29°35' W 090°37'0 0.0
2018-Feb-13 02:00N 29°35' W 090°37'0 0.0
2018-Feb-13 01:31N 29°35' W 090°37'0 0.0
2018-Feb-13 01:01N 29°35' W 090°37'0 0.0
2018-Feb-13 00:31N 29°35' W 090°37'0 0.0
2018-Feb-13 00:00N 29°35' W 090°37'0 0.0
2018-Feb-12 23:31N 29°35' W 090°37'0 0.0
2018-Feb-12 23:00N 29°35' W 090°37'0 0.0
2018-Feb-12 22:31N 29°35' W 090°37'0 0.0
2018-Feb-12 22:00N 29°35' W 090°37'0 0.0
2018-Feb-12 21:30N 29°35' W 090°37'0 0.0
2018-Feb-12 21:00N 29°35' W 090°37'0 0.0
2018-Feb-12 20:30N 29°35' W 090°37'0 0.0
2018-Feb-12 20:01N 29°35' W 090°37'0 0.0
2018-Feb-12 19:30N 29°35' W 090°37'0 0.0
2018-Feb-12 19:01N 29°35' W 090°37'0 0.0
2018-Feb-12 18:30N 29°35' W 090°37'0 0.0
2018-Feb-12 18:00N 29°35' W 090°37'0 0.0
2018-Feb-12 17:30N 29°35' W 090°37'0 0.0
2018-Feb-12 17:01N 29°35' W 090°37'0 0.0
2018-Feb-12 16:30N 29°35' W 090°37'0 0.0
2018-Feb-12 16:00N 29°35' W 090°37'0 0.0
2018-Feb-12 15:30N 29°35' W 090°37'0 0.0
2018-Feb-12 15:01N 29°35' W 090°37'0 0.0
2018-Feb-12 14:30N 29°35' W 090°37'0 0.0
2018-Feb-12 14:00N 29°35' W 090°37'0 0.0
2018-Feb-12 13:30N 29°35' W 090°37'0 0.0
2018-Feb-12 13:00N 29°35' W 090°37'0 0.0
2018-Feb-12 12:30N 29°35' W 090°37'0 0.0
2018-Feb-12 12:00N 29°35' W 090°37'0 0.0
2018-Feb-12 11:30N 29°35' W 090°37'0 0.0
2018-Feb-12 11:00N 29°35' W 090°37'0 0.0
2018-Feb-12 10:30N 29°35' W 090°37'0 0.0
2018-Feb-12 10:00N 29°35' W 090°37'0 0.0
2018-Feb-12 09:30N 29°35' W 090°37'0 0.0
2018-Feb-12 09:00N 29°35' W 090°37'0 0.0
2018-Feb-12 08:30N 29°35' W 090°37'0 0.0
2018-Feb-12 08:01N 29°35' W 090°37'0 0.0
2018-Feb-12 07:30N 29°35' W 090°37'0 0.0
2018-Feb-12 07:00N 29°35' W 090°37'0 0.0
2018-Feb-12 06:30N 29°35' W 090°37'0 0.0
2018-Feb-12 06:00N 29°35' W 090°37'0 0.0
2018-Feb-12 05:30N 29°35' W 090°37'0 0.0
2018-Feb-12 05:00N 29°35' W 090°37'0 0.0
2018-Feb-12 04:30N 29°35' W 090°37'0 0.0
2018-Feb-12 04:00N 29°35' W 090°37'0 0.0
2018-Feb-12 03:30N 29°35' W 090°37'0 0.0
2018-Feb-12 02:58N 29°35' W 090°37'0 0.0
2018-Feb-12 02:30N 29°35' W 090°37'0 0.0
2018-Feb-12 02:00N 29°35' W 090°37'0 0.0
2018-Feb-12 01:30N 29°35' W 090°37'0 0.0
2018-Feb-12 01:00N 29°35' W 090°37'0 0.0
2018-Feb-12 00:30N 29°35' W 090°37'0 0.0
2018-Feb-12 00:00N 29°35' W 090°37'0 0.0
2018-Feb-11 23:31N 29°35' W 090°37'0 0.0
2018-Feb-11 23:01N 29°35' W 090°37'0 0.0
2018-Feb-11 22:31N 29°35' W 090°37'0 0.0
2018-Feb-11 22:00N 29°35' W 090°37'0 0.0
2018-Feb-11 21:30N 29°35' W 090°37'0 0.0
2018-Feb-11 21:01N 29°35' W 090°37'0 0.0
2018-Feb-11 20:30N 29°35' W 090°37'0 0.0
2018-Feb-11 20:00N 29°35' W 090°37'0 0.0
2018-Feb-11 19:30N 29°35' W 090°37'0 0.0
2018-Feb-11 18:59N 29°35' W 090°37'0 0.0
2018-Feb-11 18:31N 29°35' W 090°37'0 0.0
2018-Feb-11 18:00N 29°35' W 090°37'0 0.0
2018-Feb-11 17:30N 29°35' W 090°37'0 0.0
2018-Feb-11 17:01N 29°35' W 090°37'0 0.0
2018-Feb-11 16:30N 29°35' W 090°37'0 0.0
2018-Feb-11 16:01N 29°35' W 090°37'0 0.0
2018-Feb-11 15:30N 29°35' W 090°37'0 0.0
2018-Feb-11 15:00N 29°35' W 090°37'0 0.0
2018-Feb-11 14:30N 29°35' W 090°37'0 0.0
2018-Feb-11 14:00N 29°35' W 090°37'0 0.0
2018-Feb-11 13:30N 29°35' W 090°37'0 0.0
2018-Feb-11 13:00N 29°35' W 090°37'0 0.0
2018-Feb-11 12:31N 29°35' W 090°37'0 0.0
2018-Feb-11 11:59N 29°35' W 090°37'0 0.0
2018-Feb-11 11:30N 29°35' W 090°37'0 0.0
2018-Feb-11 11:00N 29°35' W 090°37'0 0.0
2018-Feb-11 10:30N 29°35' W 090°37'0 0.0
2018-Feb-11 10:00N 29°35' W 090°37'0 0.0
2018-Feb-11 09:30N 29°35' W 090°37'0 0.0
2018-Feb-11 09:00N 29°35' W 090°37'0 0.0
2018-Feb-11 08:30N 29°35' W 090°37'0 0.0
2018-Feb-11 08:00N 29°35' W 090°37'0 0.0
2018-Feb-11 07:30N 29°35' W 090°37'0 0.0
2018-Feb-11 07:00N 29°35' W 090°37'0 0.0
2018-Feb-11 06:30N 29°35' W 090°37'0 0.0
2018-Feb-11 06:00N 29°35' W 090°37'0 0.0
2018-Feb-11 05:30N 29°35' W 090°37'0 0.0
2018-Feb-11 05:00N 29°35' W 090°37'0 0.0
2018-Feb-11 04:29N 29°35' W 090°37'0 0.0
2018-Feb-11 03:59N 29°35' W 090°37'0 0.0
2018-Feb-11 03:30N 29°35' W 090°37'0 0.0
2018-Feb-11 03:00N 29°35' W 090°37'0 0.0
2018-Feb-11 02:31N 29°35' W 090°37'0 0.0
2018-Feb-11 02:00N 29°35' W 090°37'0 0.0
2018-Feb-11 01:29N 29°35' W 090°37'0 0.0
2018-Feb-11 01:00N 29°35' W 090°37'0 0.0
2018-Feb-11 00:30N 29°35' W 090°37'0 0.0
2018-Feb-11 00:01N 29°35' W 090°37'0 0.0
2018-Feb-10 23:30N 29°35' W 090°37'0 0.0
2018-Feb-10 22:59N 29°35' W 090°37'0 0.0
2018-Feb-10 22:31N 29°35' W 090°37'0 0.0
2018-Feb-10 22:00N 29°35' W 090°37'0 0.0
2018-Feb-10 21:30N 29°35' W 090°37'0 0.0
2018-Feb-10 21:00N 29°35' W 090°37'0 0.0
2018-Feb-10 20:28N 29°35' W 090°37'0 0.0
2018-Feb-10 19:59N 29°35' W 090°37'0 0.0
2018-Feb-10 19:31N 29°35' W 090°37'0 0.0
2018-Feb-10 19:01N 29°35' W 090°37'0 0.0
2018-Feb-10 18:30N 29°35' W 090°37'0 0.0
2018-Feb-10 18:01N 29°35' W 090°37'0 0.0
2018-Feb-10 17:31N 29°35' W 090°37'0 0.0
2018-Feb-10 17:00N 29°35' W 090°37'0 0.0
2018-Feb-10 16:31N 29°35' W 090°37'0 0.0
2018-Feb-10 16:00N 29°35' W 090°37'0 0.0
2018-Feb-10 15:31N 29°35' W 090°37'0 0.0
2018-Feb-10 15:01N 29°35' W 090°37'0 0.0
2018-Feb-10 14:31N 29°35' W 090°37'0 0.0
2018-Feb-10 14:00N 29°35' W 090°37'0 0.0
2018-Feb-10 13:31N 29°35' W 090°37'0 0.0
2018-Feb-10 12:59N 29°35' W 090°37'0 0.0
2018-Feb-10 12:31N 29°35' W 090°37'0 0.0
2018-Feb-10 12:00N 29°35' W 090°37'0 0.0
2018-Feb-10 11:30N 29°35' W 090°37'0 0.0
2018-Feb-10 11:00N 29°35' W 090°37'  
Track history (hours):
 
Tides and Currents Weather Stations Pressure Air Temp Water Temp Dewpoint Dewpoint Depression Visibility Wind Speed Wind Dir Waves Ship Positions

Gerard D

Owner: WEEKS MARINE, INC., CRANFORD, NJ. More information available from US FCC via Universal Licensing System and Coast Guard Vessel Documentation Center.

Last reported at 2018-Feb-20 11:00 UTC. Time now 2018-Feb-20 11:29 UTC.
Position N 29°36' W 090°40'.

Length 20 m; draft 3 m.

Type: Tug. MMSI: 366939130.

Date/timePositionNaut miles runAvg speedWind from/ knotsBaromVisibWave heightAir tempDewpointWater temp
2018-Feb-20 11:00N 29°36' W 090°40'0 0.0
2018-Feb-20 10:30N 29°36' W 090°40'0 0.0
2018-Feb-20 10:01N 29°36' W 090°40'0 0.0
2018-Feb-20 09:30N 29°36' W 090°40'0 0.0
2018-Feb-20 09:01N 29°36' W 090°40'0 0.0
2018-Feb-20 08:31N 29°36' W 090°40'0 0.0
2018-Feb-20 08:01N 29°36' W 090°40'0 0.0
2018-Feb-20 07:30N 29°36' W 090°40'0 0.0
2018-Feb-20 07:01N 29°36' W 090°40'0 0.0
2018-Feb-20 06:30N 29°36' W 090°40'0 0.0
2018-Feb-20 06:01N 29°36' W 090°40'0 0.0
2018-Feb-20 05:31N 29°36' W 090°40'0 0.0
2018-Feb-20 05:00N 29°36' W 090°40'0 0.0
2018-Feb-20 04:30N 29°36' W 090°40'0 0.0
2018-Feb-20 04:00N 29°36' W 090°40'0 0.0
2018-Feb-20 03:30N 29°36' W 090°40'0 0.0
2018-Feb-20 03:01N 29°36' W 090°40'0 0.0
2018-Feb-20 02:28N 29°36' W 090°40'0 0.0
2018-Feb-20 01:59N 29°36' W 090°40'0 0.0
2018-Feb-20 01:31N 29°36' W 090°40'0 0.0
2018-Feb-20 01:00N 29°36' W 090°40'0 0.0
2018-Feb-20 00:30N 29°36' W 090°40'0 0.0
2018-Feb-20 00:01N 29°36' W 090°40'0 0.0
2018-Feb-19 23:30N 29°36' W 090°40'0 0.0
2018-Feb-19 23:01N 29°36' W 090°40'0 0.2
2018-Feb-19 22:30N 29°36' W 090°40'0 0.0
2018-Feb-19 22:01N 29°36' W 090°40'0 0.1
2018-Feb-19 21:30N 29°36' W 090°40'0 0.1
2018-Feb-19 21:00N 29°36' W 090°40'0 0.2
2018-Feb-19 20:26N 29°36' W 090°40'0 0.0
2018-Feb-19 19:25N 29°36' W 090°40'0 0.0
2018-Feb-19 18:59N 29°36' W 090°40'0 0.0
2018-Feb-19 18:28N 29°36' W 090°40'0 0.0
2018-Feb-19 18:00N 29°36' W 090°40'0 0.8
2018-Feb-19 17:30N 29°36' W 090°40'2 4.4
2018-Feb-19 17:00N 29°36' W 090°43'2 5.0
2018-Feb-19 16:31N 29°34' W 090°44'1 2.3
2018-Feb-19 16:01N 29°34' W 090°43'0 0.4
2018-Feb-19 15:30N 29°34' W 090°43'3 5.2
2018-Feb-19 15:01N 29°37' W 090°42'4 7.2
2018-Feb-19 14:30N 29°35' W 090°38'2 4.0
2018-Feb-19 14:01N 29°35' W 090°36'0 0.0
2018-Feb-19 13:30N 29°35' W 090°36'0 0.0
2018-Feb-19 13:00N 29°35' W 090°36'0 0.0
2018-Feb-19 12:31N 29°35' W 090°36'0 0.0
2018-Feb-19 12:00N 29°35' W 090°36'0 0.0
2018-Feb-19 11:30N 29°35' W 090°36'0 0.0
2018-Feb-19 11:01N 29°35' W 090°36'0 0.0
2018-Feb-19 10:31N 29°35' W 090°36'0 0.0
2018-Feb-19 10:01N 29°35' W 090°36'0 0.0
2018-Feb-19 09:31N 29°35' W 090°36'0 0.0
2018-Feb-19 09:00N 29°35' W 090°36'0 0.0
2018-Feb-19 08:30N 29°35' W 090°36'0 0.0
2018-Feb-19 08:00N 29°35' W 090°36'0 0.0
2018-Feb-19 07:31N 29°35' W 090°36'0 0.0
2018-Feb-19 07:01N 29°35' W 090°36'0 0.0
2018-Feb-19 06:31N 29°35' W 090°36'0 0.0
2018-Feb-19 06:01N 29°35' W 090°36'0 0.0
2018-Feb-19 05:31N 29°35' W 090°36'0 0.0
2018-Feb-19 05:00N 29°35' W 090°36'0 0.0
2018-Feb-19 04:31N 29°35' W 090°36'0 0.0
2018-Feb-19 04:01N 29°35' W 090°36'0 0.0
2018-Feb-19 03:30N 29°35' W 090°36'0 0.0
2018-Feb-19 03:00N 29°35' W 090°36'0 0.0
2018-Feb-19 02:30N 29°35' W 090°36'0 0.0
2018-Feb-19 02:01N 29°35' W 090°36'0 0.0
2018-Feb-19 01:31N 29°35' W 090°36'0 0.0
2018-Feb-19 01:00N 29°35' W 090°36'0 0.0
2018-Feb-19 00:31N 29°35' W 090°36'0 0.0
2018-Feb-19 00:01N 29°35' W 090°36'0 0.0
2018-Feb-18 23:30N 29°35' W 090°36'0 0.0
2018-Feb-18 23:01N 29°35' W 090°36'0 0.0
2018-Feb-18 22:31N 29°35' W 090°36'0 0.0
2018-Feb-18 22:01N 29°35' W 090°36'0 0.0
2018-Feb-18 21:30N 29°35' W 090°36'0 0.0
2018-Feb-18 21:00N 29°35' W 090°36'0 0.0
2018-Feb-18 20:31N 29°35' W 090°36'0 0.0
2018-Feb-18 20:01N 29°35' W 090°36'0 0.0
2018-Feb-18 19:30N 29°35' W 090°36'0 0.0
2018-Feb-18 19:01N 29°35' W 090°36'0 0.0
2018-Feb-18 18:30N 29°35' W 090°36'0 0.0
2018-Feb-18 18:01N 29°35' W 090°36'0 0.0
2018-Feb-18 17:31N 29°35' W 090°36'0 0.0
2018-Feb-18 17:01N 29°35' W 090°36'2 4.4
2018-Feb-18 16:30N 29°35' W 090°39'3 6.7
2018-Feb-18 16:01N 29°37' W 090°42'1 2.6
2018-Feb-18 15:30N 29°36' W 090°43'2 3.0
2018-Feb-18 15:01N 29°37' W 090°41'1 2.6
2018-Feb-18 14:31N 29°36' W 090°40'0 0.2
2018-Feb-18 14:00N 29°36' W 090°40'0 0.1
2018-Feb-18 13:30N 29°36' W 090°40'0 0.8
2018-Feb-18 13:00N 29°36' W 090°40'0 0.2
2018-Feb-18 12:30N 29°36' W 090°40'0 0.0
2018-Feb-18 11:58N 29°36' W 090°40'0 0.0
2018-Feb-18 11:28N 29°36' W 090°40'0 0.0
2018-Feb-18 11:00N 29°36' W 090°40'0 0.0
2018-Feb-18 10:09N 29°36' W 090°40'0 0.0
2018-Feb-18 10:00N 29°36' W 090°40'0 0.0
2018-Feb-18 09:30N 29°36' W 090°40'0 0.0
2018-Feb-18 09:00N 29°36' W 090°40'0 0.0
2018-Feb-18 08:30N 29°36' W 090°40'0 0.0
2018-Feb-18 08:00N 29°36' W 090°40'0 0.0
2018-Feb-18 07:30N 29°36' W 090°40'0 0.0
2018-Feb-18 07:00N 29°36' W 090°40'0 0.0
2018-Feb-18 06:30N 29°36' W 090°40'0 0.0
2018-Feb-18 05:59N 29°36' W 090°40'0 0.0
2018-Feb-18 05:30N 29°36' W 090°40'0 0.0
2018-Feb-18 05:00N 29°36' W 090°40'0 0.0
2018-Feb-18 04:30N 29°36' W 090°40'0 0.9
2018-Feb-18 04:00N 29°36' W 090°40'0 0.0
2018-Feb-18 03:31N 29°36' W 090°40'0 0.2
2018-Feb-18 03:00N 29°36' W 090°40'1 1.1
2018-Feb-18 02:30N 29°36' W 090°39'2 4.6
2018-Feb-18 02:01N 29°35' W 090°37'2 4.1
2018-Feb-18 01:30N 29°34' W 090°35'2 4.5
2018-Feb-18 01:00N 29°34' W 090°32'2 4.7
2018-Feb-18 00:30N 29°34' W 090°30'  
2018-Feb-14 20:15N 29°34' W 090°31'2 7.9
2018-Feb-14 20:00N 29°34' W 090°33'3 5.6
2018-Feb-14 19:30N 29°35' W 090°36'0 0.0
2018-Feb-14 19:00N 29°35' W 090°36'3 6.7
2018-Feb-14 18:30N 29°36' W 090°40'0 0.2
2018-Feb-14 18:01N 29°36' W 090°40'0 0.0
2018-Feb-14 17:30N 29°36' W 090°40'0 0.0
2018-Feb-14 17:01N 29°36' W 090°40'3 5.2
2018-Feb-14 16:30N 29°35' W 090°37'1 1.6
2018-Feb-14 16:00N 29°34' W 090°36'0 0.0
2018-Feb-14 15:31N 29°34' W 090°36'0 0.1
2018-Feb-14 15:00N 29°34' W 090°36'0 0.0
2018-Feb-14 14:30N 29°34' W 090°36'0 0.0
2018-Feb-14 14:00N 29°34' W 090°36'0 0.3
2018-Feb-14 13:29N 29°35' W 090°37'0 0.0
2018-Feb-14 13:00N 29°35' W 090°37'0 0.0
2018-Feb-14 12:31N 29°35' W 090°37'0 0.0
2018-Feb-14 12:01N 29°35' W 090°37'0 0.0
2018-Feb-14 11:30N 29°35' W 090°37'0 0.0
2018-Feb-14 11:01N 29°35' W 090°37'0 0.0
2018-Feb-14 10:29N 29°35' W 090°37'0 0.0
2018-Feb-14 10:00N 29°35' W 090°37'0 0.0
2018-Feb-14 09:30N 29°35' W 090°37'0 0.0
2018-Feb-14 09:00N 29°35' W 090°37'0 0.0
2018-Feb-14 08:30N 29°35' W 090°37'0 0.0
2018-Feb-14 08:00N 29°35' W 090°37'0 0.0
2018-Feb-14 07:31N 29°35' W 090°37'0 0.0
2018-Feb-14 07:00N 29°35' W 090°37'0 0.0
2018-Feb-14 06:30N 29°35' W 090°37'0 0.0
2018-Feb-14 06:01N 29°35' W 090°37'0 0.0
2018-Feb-14 05:30N 29°35' W 090°37'0 0.0
2018-Feb-14 05:01N 29°35' W 090°37'0 0.0
2018-Feb-14 04:31N 29°35' W 090°37'0 0.0
2018-Feb-14 04:00N 29°35' W 090°37'0 0.0
2018-Feb-14 03:30N 29°35' W 090°37'0 0.0
2018-Feb-14 03:01N 29°35' W 090°37'0 0.0
2018-Feb-14 02:31N 29°35' W 090°37'0 0.0
2018-Feb-14 02:00N 29°35' W 090°37'0 0.0
2018-Feb-14 01:31N 29°35' W 090°37'0 0.0
2018-Feb-14 01:01N 29°35' W 090°37'0 0.0
2018-Feb-14 00:31N 29°35' W 090°37'0 0.0
2018-Feb-14 00:00N 29°35' W 090°37'0 0.0
2018-Feb-13 23:30N 29°35' W 090°37'0 0.0
2018-Feb-13 22:59N 29°35' W 090°37'0 0.0
2018-Feb-13 22:31N 29°35' W 090°37'0 0.0
2018-Feb-13 22:01N 29°35' W 090°37'0 0.0
2018-Feb-13 21:30N 29°35' W 090°37'0 0.0
2018-Feb-13 21:01N 29°35' W 090°37'0 0.0
2018-Feb-13 20:28N 29°35' W 090°37'0 0.0
2018-Feb-13 20:00N 29°35' W 090°37'0 0.0
2018-Feb-13 19:31N 29°35' W 090°37'0 0.0
2018-Feb-13 19:01N 29°35' W 090°37'0 0.0
2018-Feb-13 18:31N 29°35' W 090°37'0 0.0
2018-Feb-13 18:01N 29°35' W 090°37'0 0.0
2018-Feb-13 17:30N 29°35' W 090°37'0 0.0
2018-Feb-13 17:01N 29°35' W 090°37'0 0.0
2018-Feb-13 16:30N 29°35' W 090°37'0 0.0
2018-Feb-13 16:01N 29°35' W 090°37'0 0.0
2018-Feb-13 15:31N 29°35' W 090°37'0 0.0
2018-Feb-13 15:00N 29°35' W 090°37'0 0.0
2018-Feb-13 14:30N 29°35' W 090°37'0 0.0
2018-Feb-13 14:00N 29°35' W 090°37'0 0.0
2018-Feb-13 13:30N 29°35' W 090°37'0 0.0
2018-Feb-13 13:01N 29°35' W 090°37'0 0.0
2018-Feb-13 12:30N 29°35' W 090°37'0 0.0
2018-Feb-13 12:01N 29°35' W 090°37'0 0.0
2018-Feb-13 11:30N 29°35' W 090°37'0 0.0
2018-Feb-13 11:01N 29°35' W 090°37'0 0.0
2018-Feb-13 10:31N 29°35' W 090°37'0 0.0
2018-Feb-13 10:00N 29°35' W 090°37'0 0.0
2018-Feb-13 09:31N 29°35' W 090°37'0 0.0
2018-Feb-13 08:59N 29°35' W 090°37'0 0.0
2018-Feb-13 08:30N 29°35' W 090°37'0 0.0
2018-Feb-13 08:00N 29°35' W 090°37'0 0.0
2018-Feb-13 07:31N 29°35' W 090°37'0 0.0
2018-Feb-13 07:01N 29°35' W 090°37'0 0.0
2018-Feb-13 06:31N 29°35' W 090°37'0 0.0
2018-Feb-13 06:00N 29°35' W 090°37'0 0.0
2018-Feb-13 05:31N 29°35' W 090°37'0 0.0
2018-Feb-13 05:01N 29°35' W 090°37'0 0.0
2018-Feb-13 04:31N 29°35' W 090°37'0 0.0
2018-Feb-13 04:00N 29°35' W 090°37'0 0.0
2018-Feb-13 03:30N 29°35' W 090°37'0 0.0
2018-Feb-13 03:00N 29°35' W 090°37'0 0.0
2018-Feb-13 02:30N 29°35' W 090°37'0 0.0
2018-Feb-13 02:00N 29°35' W 090°37'0 0.0
2018-Feb-13 01:31N 29°35' W 090°37'0 0.0
2018-Feb-13 01:01N 29°35' W 090°37'0 0.0
2018-Feb-13 00:31N 29°35' W 090°37'0 0.0
2018-Feb-13 00:00N 29°35' W 090°37'0 0.0
2018-Feb-12 23:31N 29°35' W 090°37'0 0.0
2018-Feb-12 23:00N 29°35' W 090°37'0 0.0
2018-Feb-12 22:31N 29°35' W 090°37'0 0.0
2018-Feb-12 22:00N 29°35' W 090°37'0 0.0
2018-Feb-12 21:30N 29°35' W 090°37'0 0.0
2018-Feb-12 21:00N 29°35' W 090°37'0 0.0
2018-Feb-12 20:30N 29°35' W 090°37'0 0.0
2018-Feb-12 20:01N 29°35' W 090°37'0 0.0
2018-Feb-12 19:30N 29°35' W 090°37'0 0.0
2018-Feb-12 19:01N 29°35' W 090°37'0 0.0
2018-Feb-12 18:30N 29°35' W 090°37'0 0.0
2018-Feb-12 18:00N 29°35' W 090°37'0 0.0
2018-Feb-12 17:30N 29°35' W 090°37'0 0.0
2018-Feb-12 17:01N 29°35' W 090°37'0 0.0
2018-Feb-12 16:30N 29°35' W 090°37'0 0.0
2018-Feb-12 16:00N 29°35' W 090°37'0 0.0
2018-Feb-12 15:30N 29°35' W 090°37'0 0.0
2018-Feb-12 15:01N 29°35' W 090°37'0 0.0
2018-Feb-12 14:30N 29°35' W 090°37'0 0.0
2018-Feb-12 14:00N 29°35' W 090°37'0 0.0
2018-Feb-12 13:30N 29°35' W 090°37'0 0.0
2018-Feb-12 13:00N 29°35' W 090°37'0 0.0
2018-Feb-12 12:30N 29°35' W 090°37'0 0.0
2018-Feb-12 12:00N 29°35' W 090°37'0 0.0
2018-Feb-12 11:30N 29°35' W 090°37'0 0.0
2018-Feb-12 11:00N 29°35' W 090°37'0 0.0
2018-Feb-12 10:30N 29°35' W 090°37'0 0.0
2018-Feb-12 10:00N 29°35' W 090°37'0 0.0
2018-Feb-12 09:30N 29°35' W 090°37'0 0.0
2018-Feb-12 09:00N 29°35' W 090°37'0 0.0
2018-Feb-12 08:30N 29°35' W 090°37'0 0.0
2018-Feb-12 08:01N 29°35' W 090°37'0 0.0
2018-Feb-12 07:30N 29°35' W 090°37'0 0.0
2018-Feb-12 07:00N 29°35' W 090°37'0 0.0
2018-Feb-12 06:30N 29°35' W 090°37'0 0.0
2018-Feb-12 06:00N 29°35' W 090°37'0 0.0
2018-Feb-12 05:30N 29°35' W 090°37'0 0.0
2018-Feb-12 05:00N 29°35' W 090°37'0 0.0
2018-Feb-12 04:30N 29°35' W 090°37'0 0.0
2018-Feb-12 04:00N 29°35' W 090°37'0 0.0
2018-Feb-12 03:30N 29°35' W 090°37'0 0.0
2018-Feb-12 02:58N 29°35' W 090°37'0 0.0
2018-Feb-12 02:30N 29°35' W 090°37'0 0.0
2018-Feb-12 02:00N 29°35' W 090°37'0 0.0
2018-Feb-12 01:30N 29°35' W 090°37'0 0.0
2018-Feb-12 01:00N 29°35' W 090°37'0 0.0
2018-Feb-12 00:30N 29°35' W 090°37'0 0.0
2018-Feb-12 00:00N 29°35' W 090°37'0 0.0
2018-Feb-11 23:31N 29°35' W 090°37'0 0.0
2018-Feb-11 23:01N 29°35' W 090°37'0 0.0
2018-Feb-11 22:31N 29°35' W 090°37'0 0.0
2018-Feb-11 22:00N 29°35' W 090°37'0 0.0
2018-Feb-11 21:30N 29°35' W 090°37'0 0.0
2018-Feb-11 21:01N 29°35' W 090°37'0 0.0
2018-Feb-11 20:30N 29°35' W 090°37'0 0.0
2018-Feb-11 20:00N 29°35' W 090°37'0 0.0
2018-Feb-11 19:30N 29°35' W 090°37'0 0.0
2018-Feb-11 18:59N 29°35' W 090°37'0 0.0
2018-Feb-11 18:31N 29°35' W 090°37'0 0.0
2018-Feb-11 18:00N 29°35' W 090°37'0 0.0
2018-Feb-11 17:30N 29°35' W 090°37'0 0.0
2018-Feb-11 17:01N 29°35' W 090°37'0 0.0
2018-Feb-11 16:30N 29°35' W 090°37'0 0.0
2018-Feb-11 16:01N 29°35' W 090°37'0 0.0
2018-Feb-11 15:30N 29°35' W 090°37'0 0.0
2018-Feb-11 15:00N 29°35' W 090°37'0 0.0
2018-Feb-11 14:30N 29°35' W 090°37'0 0.0
2018-Feb-11 14:00N 29°35' W 090°37'0 0.0
2018-Feb-11 13:30N 29°35' W 090°37'0 0.0
2018-Feb-11 13:00N 29°35' W 090°37'0 0.0
2018-Feb-11 12:31N 29°35' W 090°37'0 0.0
2018-Feb-11 11:59N 29°35' W 090°37'0 0.0
2018-Feb-11 11:30N 29°35' W 090°37'0 0.0
2018-Feb-11 11:00N 29°35' W 090°37'0 0.0
2018-Feb-11 10:30N 29°35' W 090°37'0 0.0
2018-Feb-11 10:00N 29°35' W 090°37'0 0.0
2018-Feb-11 09:30N 29°35' W 090°37'0 0.0
2018-Feb-11 09:00N 29°35' W 090°37'0 0.0
2018-Feb-11 08:30N 29°35' W 090°37'0 0.0
2018-Feb-11 08:00N 29°35' W 090°37'0 0.0
2018-Feb-11 07:30N 29°35' W 090°37'0 0.0
2018-Feb-11 07:00N 29°35' W 090°37'0 0.0
2018-Feb-11 06:30N 29°35' W 090°37'0 0.0
2018-Feb-11 06:00N 29°35' W 090°37'0 0.0
2018-Feb-11 05:30N 29°35' W 090°37'0 0.0
2018-Feb-11 05:00N 29°35' W 090°37'0 0.0
2018-Feb-11 04:29N 29°35' W 090°37'0 0.0
2018-Feb-11 03:59N 29°35' W 090°37'0 0.0
2018-Feb-11 03:30N 29°35' W 090°37'0 0.0
2018-Feb-11 03:00N 29°35' W 090°37'0 0.0
2018-Feb-11 02:31N 29°35' W 090°37'0 0.0
2018-Feb-11 02:00N 29°35' W 090°37'0 0.0
2018-Feb-11 01:29N 29°35' W 090°37'0 0.0
2018-Feb-11 01:00N 29°35' W 090°37'0 0.0
2018-Feb-11 00:30N 29°35' W 090°37'0 0.0
2018-Feb-11 00:01N 29°35' W 090°37'0 0.0
2018-Feb-10 23:30N 29°35' W 090°37'0 0.0
2018-Feb-10 22:59N 29°35' W 090°37'0 0.0
2018-Feb-10 22:31N 29°35' W 090°37'0 0.0
2018-Feb-10 22:00N 29°35' W 090°37'0 0.0
2018-Feb-10 21:30N 29°35' W 090°37'0 0.0
2018-Feb-10 21:00N 29°35' W 090°37'0 0.0
2018-Feb-10 20:28N 29°35' W 090°37'0 0.0
2018-Feb-10 19:59N 29°35' W 090°37'0 0.0
2018-Feb-10 19:31N 29°35' W 090°37'0 0.0
2018-Feb-10 19:01N 29°35' W 090°37'0 0.0
2018-Feb-10 18:30N 29°35' W 090°37'0 0.0
2018-Feb-10 18:01N 29°35' W 090°37'0 0.0
2018-Feb-10 17:31N 29°35' W 090°37'0 0.0
2018-Feb-10 17:00N 29°35' W 090°37'0 0.0
2018-Feb-10 16:31N 29°35' W 090°37'0 0.0
2018-Feb-10 16:00N 29°35' W 090°37'0 0.0
2018-Feb-10 15:31N 29°35' W 090°37'0 0.0
2018-Feb-10 15:01N 29°35' W 090°37'0 0.0
2018-Feb-10 14:31N 29°35' W 090°37'0 0.0
2018-Feb-10 14:00N 29°35' W 090°37'0 0.0
2018-Feb-10 13:31N 29°35' W 090°37'0 0.0
2018-Feb-10 12:59N 29°35' W 090°37'0 0.0
2018-Feb-10 12:31N 29°35' W 090°37'0 0.0
2018-Feb-10 12:00N 29°35' W 090°37'0 0.0
2018-Feb-10 11:30N 29°35' W 090°37'0 0.0
2018-Feb-10 11:00N 29°35' W 090°37'  

Dump ship's entire track history